Time;durP1;ratioP1;P1;durP2;ratioP2;P2;SDS_P1;SDS_P2;PMS_P1;PMS_P2;Temp;Humidity;BMP_temperature;BMP_pressure;BME280_temperature;BME280_humidity;BME280_pressure;Samples;Min_cycle;Max_cycle;Signal;HPM_P1;HPM_P2
2023/05/21 00:05:14;;;;;;;25.10;21.20;;;;;;;12.45;74.88;97614.19;102102;1296;636057;-75
2023/05/21 00:07:42;;;;;;;25.80;20.80;;;;;;;12.43;75.13;97609.34;104407;1277;97112;-75
2023/05/21 00:10:11;;;;;;;28.30;22.30;;;;;;;12.43;75.04;97612.75;104321;1279;96313;-75
2023/05/21 00:12:40;;;;;;;27.30;20.00;;;;;;;12.40;75.15;97615.30;104181;1267;99720;-75
2023/05/21 00:15:09;;;;;;;29.30;22.40;;;;;;;12.39;75.35;97613.90;104417;1269;102015;-76
2023/05/21 00:17:37;;;;;;;32.00;21.80;;;;;;;12.40;75.26;97611.35;104208;1268;108528;-76
2023/05/21 00:20:07;;;;;;;24.90;19.60;;;;;;;12.39;75.30;97610.90;104161;1276;95959;-76
2023/05/21 00:22:36;;;;;;;25.80;20.20;;;;;;;12.35;75.18;97614.29;104315;1267;96036;-75
2023/05/21 00:25:05;;;;;;;25.30;20.10;;;;;;;12.28;75.27;97611.09;104347;1267;100647;-75
2023/05/21 00:27:33;;;;;;;21.90;18.50;;;;;;;12.25;75.40;97613.27;104367;1276;101884;-75
2023/05/21 00:30:01;;;;;;;26.00;19.20;;;;;;;12.24;75.39;97609.65;105117;1256;109133;-74
2023/05/21 00:32:29;;;;;;;23.50;18.50;;;;;;;12.23;75.40;97612.52;105072;1256;95998;-77
2023/05/21 00:34:57;;;;;;;24.90;19.70;;;;;;;12.20;75.46;97607.38;105104;1256;96670;-76
2023/05/21 00:37:25;;;;;;;27.80;19.10;;;;;;;12.17;75.53;97607.29;105217;1256;101480;-75
2023/05/21 00:39:53;;;;;;;23.70;19.10;;;;;;;12.08;75.53;97603.45;105329;1256;102002;-75
2023/05/21 00:42:25;;;;;;;26.10;18.80;;;;;;;12.03;75.57;97605.60;105121;1274;100602;-75
2023/05/21 00:44:54;;;;;;;;;;;;;;;12.03;75.79;97604.81;105233;1254;95853;-79
2023/05/21 00:47:22;;;;;;;25.60;19.80;;;;;;;12.01;76.00;97603.94;105212;1264;96709;-76
2023/05/21 00:49:52;;;;;;;20.30;18.10;;;;;;;11.99;76.00;97603.70;105122;1256;101358;-75
2023/05/21 00:52:21;;;;;;;25.30;18.30;;;;;;;11.93;75.83;97601.40;105306;1263;101825;-76
2023/05/21 00:54:51;;;;;;;25.50;18.70;;;;;;;11.88;75.74;97595.63;105209;1256;100600;-78
2023/05/21 00:57:20;;;;;;;23.60;19.60;;;;;;;11.86;75.82;97597.27;105072;1265;96020;-77
2023/05/21 00:59:53;;;;;;;27.50;20.50;;;;;;;11.85;75.97;97599.09;104955;1259;97534;-75
2023/05/21 01:02:22;;;;;;;26.20;20.30;;;;;;;11.85;75.99;97596.55;105402;1269;101207;-77
2023/05/21 01:04:55;;;;;;;20.60;18.00;;;;;;;11.81;75.92;97595.88;105389;1261;101739;-75
2023/05/21 01:07:23;;;;;;;22.90;17.50;;;;;;;11.72;75.83;97598.30;105048;1261;100712;-75
2023/05/21 01:09:53;;;;;;;22.90;18.70;;;;;;;11.64;76.02;97599.48;105073;1254;96021;-77
2023/05/21 01:12:23;;;;;;;23.90;19.30;;;;;;;11.65;76.06;97599.11;105039;1264;95870;-75
2023/05/21 01:14:52;;;;;;;24.70;18.70;;;;;;;11.66;76.23;97598.95;105114;1262;101232;-75
2023/05/21 01:17:24;;;;;;;26.50;19.90;;;;;;;11.66;76.30;97597.98;105091;1256;102199;-78
2023/05/21 01:19:53;;;;;;;22.10;18.70;;;;;;;11.59;76.32;97597.18;105122;1255;100425;-78
2023/05/21 01:22:23;;;;;;;25.60;19.20;;;;;;;11.56;76.43;97591.33;105018;1255;95855;-75
2023/05/21 01:24:54;;;;;;;21.90;19.20;;;;;;;11.54;76.49;97594.41;104991;1269;95896;-75
2023/05/21 01:27:22;;;;;;;24.60;20.00;;;;;;;11.52;76.49;97594.95;105200;1266;101508;-75
2023/05/21 01:29:50;;;;;;;21.10;17.90;;;;;;;11.51;76.48;97592.73;105360;1257;101881;-75
2023/05/21 01:32:24;;;;;;;22.60;17.20;;;;;;;11.48;76.41;97591.47;105106;1257;100319;-80
2023/05/21 01:35:07;;;;;;;21.60;17.70;;;;;;;11.42;76.39;97590.20;105036;1256;95810;-75
2023/05/21 01:37:49;;;;;;;25.50;17.60;;;;;;;11.39;76.55;97584.41;105086;1253;95869;-79
2023/05/21 01:40:23;;;;;;;20.80;17.30;;;;;;;11.39;76.62;97584.88;105134;1256;100884;-75
2023/05/21 01:42:52;;;;;;;23.10;17.50;;;;;;;11.32;76.56;97587.94;105139;1266;101852;-78
2023/05/21 01:45:22;;;;;;;22.60;17.70;;;;;;;11.26;76.78;97588.31;105388;1258;100595;-74
2023/05/21 01:47:54;;;;;;;21.50;18.60;;;;;;;11.23;76.83;97583.02;105129;1257;96085;-78
2023/05/21 01:50:24;;;;;;;24.00;18.30;;;;;;;11.24;77.01;97582.91;105365;1251;95851;-76
2023/05/21 01:52:55;;;;;;;28.00;19.20;;;;;;;11.25;77.02;97583.42;105162;1256;101576;-75
2023/05/21 01:55:24;;;;;;;25.30;19.60;;;;;;;11.20;76.98;97579.16;105144;1256;101883;-77
2023/05/21 01:57:54;;;;;;;24.40;20.60;;;;;;;11.20;77.10;97579.54;105181;1267;100472;-75
2023/05/21 02:00:24;;;;;;;21.50;17.80;;;;;;;11.24;77.17;97578.18;105194;1256;95925;-75
2023/05/21 02:02:52;;;;;;;21.90;18.10;;;;;;;11.24;77.03;97574.52;105064;1256;95853;-74
2023/05/21 02:05:20;;;;;;;23.80;17.60;;;;;;;11.22;77.10;97580.45;105192;1274;101418;-77
2023/05/21 02:07:52;;;;;;;19.80;17.70;;;;;;;11.18;77.07;97577.25;105273;1253;101816;-75
2023/05/21 02:10:22;;;;;;;21.50;18.00;;;;;;;11.16;77.04;97573.38;105144;1258;98562;-76
2023/05/21 02:12:50;;;;;;;21.20;16.90;;;;;;;11.13;77.10;97574.17;105054;1267;95831;-75
2023/05/21 02:15:19;;;;;;;20.80;17.00;;;;;;;11.07;77.13;97570.65;105301;1257;97122;-75
2023/05/21 02:17:47;;;;;;;23.40;17.00;;;;;;;11.04;77.22;97571.77;105079;1256;101683;-77
2023/05/21 02:20:15;;;;;;;20.30;17.00;;;;;;;10.99;77.29;97577.28;105155;1256;101945;-74
2023/05/21 02:22:45;;;;;;;19.80;17.50;;;;;;;10.97;77.30;97576.66;104889;1270;100663;-75
2023/05/21 02:25:17;;;;;;;21.10;18.20;;;;;;;10.93;77.31;97575.70;105080;1255;96428;-77
2023/05/21 02:27:46;;;;;;;21.60;17.10;;;;;;;10.89;77.40;97576.19;105107;1251;95803;-74
2023/05/21 02:30:15;;;;;;;24.40;17.00;;;;;;;10.87;77.37;97571.25;105137;1256;101297;-75
2023/05/21 02:32:44;;;;;;;18.80;16.50;;;;;;;10.86;77.30;97573.89;105076;1256;102225;-75
2023/05/21 02:35:13;;;;;;;18.50;15.50;;;;;;;10.84;77.32;97574.09;105046;1267;100630;-76
2023/05/21 02:37:42;;;;;;;20.90;16.00;;;;;;;10.81;77.23;97575.00;105033;1256;95905;-75
2023/05/21 02:40:11;;;;;;;17.50;15.20;;;;;;;10.76;77.24;97571.18;105123;1256;95836;-76
2023/05/21 02:42:40;;;;;;;20.00;16.10;;;;;;;10.68;77.18;97567.65;105120;1252;101619;-75
2023/05/21 02:45:10;;;;;;;21.20;16.40;;;;;;;10.65;77.38;97569.18;105011;1253;102705;-75
2023/05/21 02:47:38;;;;;;;21.20;15.90;;;;;;;10.65;77.55;97566.81;105086;1253;100693;-75
2023/05/21 02:50:09;;;;;;;17.10;15.10;;;;;;;10.65;77.60;97560.41;105047;1252;96034;-75
2023/05/21 02:52:37;;;;;;;19.50;15.10;;;;;;;10.63;77.60;97560.96;105221;1251;95842;-75
2023/05/21 02:55:05;;;;;;;24.40;17.30;;;;;;;10.60;77.66;97559.40;105027;1253;101389;-75
2023/05/21 02:57:33;;;;;;;19.20;16.10;;;;;;;10.57;77.79;97561.09;105100;1257;102845;-74
2023/05/21 03:00:02;;;;;;;21.90;17.30;;;;;;;10.56;77.87;97559.17;105085;1256;100226;-75
2023/05/21 03:02:30;;;;;;;21.20;16.40;;;;;;;10.57;77.83;97556.23;105089;1253;95916;-76
2023/05/21 03:04:59;;;;;;;21.50;15.80;;;;;;;10.57;77.92;97555.11;105362;1254;95848;-78
2023/05/21 03:07:27;;;;;;;20.70;16.10;;;;;;;10.55;77.76;97554.48;105105;1274;100070;-75
2023/05/21 03:09:55;;;;;;;22.50;16.70;;;;;;;10.52;77.66;97557.25;105257;1255;101774;-75
2023/05/21 03:12:23;;;;;;;21.50;16.80;;;;;;;10.51;77.84;97560.54;105050;1264;99940;-75
2023/05/21 03:14:51;;;;;;;18.70;16.60;;;;;;;10.51;77.92;97558.51;105236;1269;95853;-79
2023/05/21 03:17:21;;;;;;;20.20;16.40;;;;;;;10.48;77.84;97560.10;105053;1258;95839;-75
2023/05/21 03:19:49;;;;;;;18.60;14.60;;;;;;;10.45;77.88;97556.69;105188;1274;101430;-74
2023/05/21 03:22:18;;;;;;;18.80;14.00;;;;;;;10.45;78.06;97554.66;105329;1256;102163;-76
2023/05/21 03:24:47;;;;;;;17.20;14.40;;;;;;;10.45;78.11;97555.45;104979;1257;100670;-76
2023/05/21 03:27:15;;;;;;;21.30;17.50;;;;;;;10.44;78.11;97558.09;105148;1270;95851;-75
2023/05/21 03:29:44;;;;;;;22.40;18.70;;;;;;;10.42;78.09;97559.20;105226;1267;95848;-76
2023/05/21 03:32:13;;;;;;;27.70;20.60;;;;;;;10.42;78.33;97560.45;105350;1264;101574;-75
2023/05/21 03:34:41;;;;;;;20.10;16.40;;;;;;;10.46;78.34;97563.75;105062;1267;101811;-75
2023/05/21 03:37:09;;;;;;;23.00;18.30;;;;;;;10.49;78.48;97564.80;105024;1257;101455;-75
2023/05/21 03:39:37;;;;;;;17.60;15.40;;;;;;;10.48;78.37;97571.39;105084;1257;97324;-74
2023/05/21 03:42:06;;;;;;;21.20;16.90;;;;;;;10.48;78.45;97574.84;105223;1253;97163;-74
2023/05/21 03:44:34;;;;;;;22.40;17.20;;;;;;;10.49;78.51;97575.84;105187;1256;101602;-77
2023/05/21 03:47:05;;;;;;;22.90;17.70;;;;;;;10.49;78.61;97573.51;105334;1251;102051;-74
2023/05/21 03:49:33;;;;;;;24.60;18.20;;;;;;;10.47;78.84;97572.23;105231;1264;100374;-74
2023/05/21 03:52:01;;;;;;;21.10;17.80;;;;;;;10.48;78.95;97573.39;105034;1256;96920;-74
2023/05/21 03:54:29;;;;;;;19.50;17.10;;;;;;;10.49;79.03;97574.22;105035;1256;97072;-74
2023/05/21 03:56:57;;;;;;;22.40;17.30;;;;;;;10.49;79.03;97574.73;105113;1256;101050;-77
2023/05/21 03:59:26;;;;;;;24.70;16.50;;;;;;;10.52;79.24;97578.98;104926;1259;100259;-77
2023/05/21 04:01:54;;;;;;;20.40;17.60;;;;;;;10.55;79.25;97580.80;105146;1256;100522;-75
2023/05/21 04:04:22;;;;;;;20.70;18.00;;;;;;;10.58;79.27;97578.87;105195;1267;95855;-73
2023/05/21 04:06:53;;;;;;;26.30;18.90;;;;;;;10.63;79.40;97579.81;104857;1258;95942;-74
2023/05/21 04:09:21;;;;;;;20.50;17.80;;;;;;;10.67;79.53;97576.88;105161;1266;101236;-74
2023/05/21 04:11:49;;;;;;;20.60;17.50;;;;;;;10.72;79.49;97575.52;105219;1274;101703;-77
2023/05/21 04:14:17;;;;;;;20.30;17.50;;;;;;;10.76;79.41;97573.41;105306;1257;100166;-78
2023/05/21 04:16:47;;;;;;;23.40;18.50;;;;;;;10.80;79.58;97576.58;105370;1258;97868;-76
2023/05/21 04:19:16;;;;;;;22.10;19.80;;;;;;;10.84;79.67;97576.75;105160;1256;98402;-74
2023/05/21 04:21:44;;;;;;;23.40;19.80;;;;;;;10.89;79.78;97579.73;105197;1251;103172;-77
2023/05/21 04:24:12;;;;;;;25.50;20.60;;;;;;;10.93;80.06;97580.02;105365;1256;102005;-75
2023/05/21 04:26:41;;;;;;;22.90;19.90;;;;;;;10.98;80.12;97577.89;105344;1256;108953;-73
2023/05/21 04:29:10;;;;;;;27.90;20.40;;;;;;;11.04;80.30;97575.35;105064;1257;96559;-76
2023/05/21 04:31:38;;;;;;;24.20;19.10;;;;;;;11.11;80.41;97574.25;105078;1253;97029;-77
2023/05/21 04:34:06;;;;;;;21.70;19.30;;;;;;;11.17;80.50;97574.00;105053;1257;102407;-73
2023/05/21 04:36:34;;;;;;;26.20;21.40;;;;;;;11.23;80.53;97570.53;105080;1256;102057;-74
2023/05/21 04:39:04;;;;;;;25.70;22.20;;;;;;;11.29;80.82;97571.69;104936;1251;100841;-76
2023/05/21 04:41:32;;;;;;;30.80;23.30;;;;;;;11.38;81.00;97570.37;105073;1251;97119;-73
2023/05/21 04:44:00;;;;;;;26.20;22.00;;;;;;;11.47;81.26;97571.46;104974;1253;97004;-74
2023/05/21 04:46:29;;;;;;;35.60;27.50;;;;;;;11.54;81.07;97569.24;105067;1251;102479;-73
2023/05/21 04:49:01;;;;;;;39.20;29.60;;;;;;;11.62;81.08;97561.30;105196;1267;101636;-74
2023/05/21 04:51:30;;;;;;;36.70;29.70;;;;;;;11.69;81.09;97561.48;105252;1258;100710;-73
2023/05/21 04:53:58;;;;;;;36.10;28.40;;;;;;;11.77;81.15;97560.73;105031;1256;97864;-74
2023/05/21 04:56:27;;;;;;;32.80;27.00;;;;;;;11.84;81.19;97560.61;105049;1256;97010;-74
2023/05/21 04:58:57;;;;;;;29.80;26.50;;;;;;;11.92;81.36;97558.25;105040;1267;102874;-75
2023/05/21 05:01:28;;;;;;;37.70;25.50;;;;;;;12.01;81.51;97560.08;104956;1258;100424;-75
2023/05/21 05:03:56;;;;;;;32.90;25.90;;;;;;;12.10;81.45;97553.65;105086;1253;100421;-78
2023/05/21 05:06:25;;;;;;;29.10;26.00;;;;;;;12.18;81.39;97552.48;104991;1254;97031;-74
2023/05/21 05:08:53;;;;;;;30.90;24.50;;;;;;;12.25;81.55;97549.98;105117;1258;97064;-74
2023/05/21 05:11:22;;;;;;;29.70;24.60;;;;;;;12.35;81.52;97553.83;105170;1257;102911;-74
2023/05/21 05:13:50;;;;;;;28.50;22.80;;;;;;;12.44;81.61;97555.21;105070;1253;101763;-74
2023/05/21 05:16:23;;;;;;;26.90;22.70;;;;;;;12.52;81.60;97554.32;105113;1257;100560;-78
2023/05/21 05:18:52;;;;;;;26.90;21.80;;;;;;;12.61;81.61;97554.71;105177;1257;96557;-75
2023/05/21 05:21:22;;;;;;;24.70;22.10;;;;;;;12.71;81.56;97556.71;105346;1256;97208;-74
2023/05/21 05:23:50;;;;;;;29.60;23.30;;;;;;;12.80;81.61;97556.80;105264;1256;102671;-74
2023/05/21 05:26:20;;;;;;;29.60;22.70;;;;;;;12.90;81.68;97560.80;105091;1258;102117;-74
2023/05/21 05:28:48;;;;;;;28.60;23.50;;;;;;;12.99;81.80;97560.55;105108;1256;99787;-76
2023/05/21 05:31:16;;;;;;;30.00;22.60;;;;;;;13.08;81.85;97558.76;104929;1256;96741;-75
2023/05/21 05:33:44;;;;;;;27.30;20.90;;;;;;;13.16;81.99;97556.07;105130;1256;97954;-75
2023/05/21 05:36:13;;;;;;;25.90;20.30;;;;;;;13.25;81.91;97552.08;105036;1258;101290;-77
2023/05/21 05:38:41;;;;;;;21.60;19.10;;;;;;;13.35;81.86;97546.29;105247;1256;101841;-76
2023/05/21 05:41:09;;;;;;;21.80;18.40;;;;;;;13.43;81.86;97540.69;105140;1256;100411;-75
2023/05/21 05:43:37;;;;;;;23.80;19.00;;;;;;;13.52;81.89;97538.29;105254;1256;96786;-75
2023/05/21 05:46:05;;;;;;;23.10;19.30;;;;;;;13.62;81.87;97533.91;105362;1255;98186;-75
2023/05/21 05:48:34;;;;;;;26.20;17.80;;;;;;;13.72;81.81;97532.46;104876;1259;102687;-74
2023/05/21 05:51:02;;;;;;;20.50;17.90;;;;;;;13.82;81.51;97534.38;105306;1251;101831;-77
2023/05/21 05:53:30;;;;;;;24.20;17.70;;;;;;;13.91;81.44;97535.12;105131;1256;100465;-75
2023/05/21 05:55:59;;;;;;;23.80;17.30;;;;;;;14.03;81.25;97536.38;105018;1256;97300;-75
2023/05/21 05:58:29;;;;;;;20.60;17.10;;;;;;;14.15;81.14;97538.42;105137;1256;97000;-78
2023/05/21 06:00:59;;;;;;;19.90;16.80;;;;;;;14.25;80.94;97535.70;105084;1254;102736;-75
2023/05/21 06:03:28;;;;;;;18.80;16.70;;;;;;;14.33;80.80;97533.06;105057;1251;101881;-75
2023/05/21 06:05:56;;;;;;;19.10;16.50;;;;;;;14.43;80.72;97525.71;105157;1256;98734;-75
2023/05/21 06:08:24;;;;;;;21.20;16.90;;;;;;;14.52;80.58;97525.20;105254;1251;97845;-75
2023/05/21 06:10:52;;;;;;;20.10;16.00;;;;;;;14.62;80.52;97523.98;105173;1255;96705;-75
2023/05/21 06:13:21;;;;;;;19.00;16.30;;;;;;;14.72;80.36;97523.23;105080;1256;102839;-75
2023/05/21 06:15:49;;;;;;;17.70;15.80;;;;;;;14.84;80.35;97521.40;104926;1258;101889;-79
2023/05/21 06:18:17;;;;;;;19.00;16.40;;;;;;;14.99;80.53;97516.87;105086;1256;100462;-75
2023/05/21 06:20:45;;;;;;;19.30;16.00;;;;;;;15.11;80.20;97514.05;105132;1253;97165;-74
2023/05/21 06:23:13;;;;;;;17.30;14.80;;;;;;;15.24;80.22;97506.45;105131;1253;97134;-78
2023/05/21 06:25:41;;;;;;;15.20;13.50;;;;;;;15.36;79.98;97503.67;105129;1257;102831;-78
2023/05/21 06:28:09;;;;;;;17.50;14.30;;;;;;;15.46;79.60;97500.45;105146;1256;101972;-76
2023/05/21 06:30:37;;;;;;;19.60;14.30;;;;;;;15.58;79.77;97501.27;105042;1258;100852;-75
2023/05/21 06:33:06;;;;;;;15.30;13.70;;;;;;;15.69;79.43;97498.84;105126;1258;96551;-77
2023/05/21 06:35:35;;;;;;;19.90;14.60;;;;;;;15.78;79.26;97498.91;104997;1257;97203;-76
2023/05/21 06:38:03;;;;;;;18.10;13.30;;;;;;;15.87;79.12;97498.34;105207;1256;102964;-76
2023/05/21 06:40:31;;;;;;;17.60;12.90;;;;;;;15.98;79.05;97498.77;105330;1251;101712;-76
2023/05/21 06:42:59;;;;;;;13.80;12.30;;;;;;;16.08;78.40;97491.06;105195;1256;100593;-76
2023/05/21 06:45:28;;;;;;;15.90;11.60;;;;;;;16.19;78.09;97491.58;105131;1257;96646;-76
2023/05/21 06:47:56;;;;;;;16.70;12.20;;;;;;;16.31;78.18;97490.38;105079;1256;97214;-74
2023/05/21 06:50:24;;;;;;;13.60;12.10;;;;;;;16.49;78.49;97489.06;105131;1256;102528;-79
2023/05/21 06:52:52;;;;;;;13.10;11.80;;;;;;;16.68;78.28;97484.71;105098;1258;101868;-76
2023/05/21 06:55:20;;;;;;;13.80;11.60;;;;;;;16.81;77.86;97479.73;105038;1255;100575;-77
2023/05/21 06:57:48;;;;;;;19.10;11.40;;;;;;;16.88;77.28;97476.42;105125;1256;97461;-76
2023/05/21 07:00:17;;;;;;;15.30;10.90;;;;;;;16.97;77.12;97473.91;105155;1256;97090;-77
2023/05/21 07:02:45;;;;;;;13.70;11.70;;;;;;;17.06;77.06;97473.13;105096;1256;102749;-76
2023/05/21 07:05:13;;;;;;;14.70;11.90;;;;;;;17.18;77.05;97471.27;104956;1276;101617;-78
2023/05/21 07:07:41;;;;;;;17.60;11.70;;;;;;;17.29;76.80;97468.20;104922;1258;100417;-76
2023/05/21 07:10:10;;;;;;;17.10;12.00;;;;;;;17.42;76.65;97463.90;104915;1257;96807;-76
2023/05/21 07:12:39;;;;;;;16.20;12.00;;;;;;;17.54;76.38;97461.60;104958;1257;97226;-77
2023/05/21 07:15:08;;;;;;;14.40;12.40;;;;;;;17.69;76.24;97460.34;104909;1268;102959;-77
2023/05/21 07:17:36;;;;;;;17.30;12.00;;;;;;;17.85;76.24;97456.76;105077;1257;101691;-78
2023/05/21 07:20:06;;;;;;;14.60;11.50;;;;;;;17.99;75.85;97453.19;104901;1258;100442;-76
2023/05/21 07:22:34;;;;;;;12.60;11.20;;;;;;;18.12;75.65;97450.48;104982;1259;97789;-77
2023/05/21 07:25:02;;;;;;;16.70;11.60;;;;;;;18.25;75.28;97450.92;104941;1253;96655;-75
2023/05/21 07:27:30;;;;;;;11.90;10.70;;;;;;;18.38;75.18;97450.55;104912;1259;102710;-75
2023/05/21 07:29:58;;;;;;;14.10;10.50;;;;;;;18.54;74.77;97445.99;104893;1277;108787;-77
2023/05/21 07:32:27;;;;;;;12.10;10.90;;;;;;;18.70;74.22;97445.98;105042;1253;100164;-76
2023/05/21 07:34:56;;;;;;;12.10;9.20;;;;;;;18.90;74.35;97443.55;104915;1259;96581;-76
2023/05/21 07:37:26;;;;;;;12.40;8.90;;;;;;;19.13;73.99;97444.34;104884;1253;97091;-76
2023/05/21 07:39:56;;;;;;;11.90;8.20;;;;;;;19.36;73.65;97443.21;104947;1253;102865;-75
2023/05/21 07:42:26;;;;;;;12.30;8.50;;;;;;;19.73;72.87;97439.83;105040;1276;101922;-76
2023/05/21 07:44:54;;;;;;;13.60;8.10;;;;;;;20.14;72.05;97444.54;104928;1253;100741;-75
2023/05/21 07:47:22;;;;;;;8.50;7.50;;;;;;;20.59;72.02;97446.78;105080;1256;96815;-78
2023/05/21 07:49:50;;;;;;;11.70;7.70;;;;;;;21.06;70.97;97442.20;105011;1259;97013;-76
2023/05/21 07:52:19;;;;;;;11.90;8.00;;;;;;;21.37;69.56;97438.03;105118;1253;102837;-75
2023/05/21 07:54:47;;;;;;;7.90;7.00;;;;;;;21.83;68.80;97435.09;104781;1271;102030;-74
2023/05/21 07:57:15;;;;;;;14.40;7.70;;;;;;;22.30;68.24;97435.59;104650;1277;100930;-76
2023/05/21 07:59:43;;;;;;;8.80;6.90;;;;;;;22.74;67.18;97439.17;105022;1258;97209;-76
2023/05/21 08:02:11;;;;;;;10.80;6.30;;;;;;;23.19;65.87;97437.98;105120;1269;97020;-77
2023/05/21 08:04:39;;;;;;;8.10;7.20;;;;;;;23.64;65.22;97437.64;105248;1256;102657;-76
2023/05/21 08:07:08;;;;;;;10.00;6.40;;;;;;;24.05;63.68;97439.91;105099;1251;102385;-77
2023/05/21 08:09:36;;;;;;;11.70;6.30;;;;;;;24.39;62.89;97440.83;105173;1267;100665;-78
2023/05/21 08:12:05;;;;;;;10.70;6.00;;;;;;;24.74;62.25;97440.83;105261;1255;96508;-75
2023/05/21 08:14:33;;;;;;;7.20;5.40;;;;;;;25.02;60.91;97445.08;105188;1256;97089;-77
2023/05/21 08:17:01;;;;;;;7.00;5.50;;;;;;;25.28;59.74;97443.15;105180;1256;102798;-76
2023/05/21 08:19:29;;;;;;;8.10;6.00;;;;;;;25.53;58.65;97438.37;105127;1251;102318;-76
2023/05/21 08:21:58;;;;;;;6.10;5.50;;;;;;;25.76;58.39;97435.41;104988;1258;101419;-76
2023/05/21 08:24:26;;;;;;;6.00;5.10;;;;;;;25.94;57.59;97435.42;105081;1256;96665;-78
2023/05/21 08:26:54;;;;;;;8.50;5.20;;;;;;;26.20;56.60;97437.79;105213;1264;98393;-75
2023/05/21 08:29:22;;;;;;;10.80;5.80;;;;;;;26.56;55.61;97435.86;105116;1253;102669;-75
2023/05/21 08:31:50;;;;;;;6.90;4.90;;;;;;;26.92;54.79;97437.98;105139;1257;102358;-79
2023/05/21 08:34:18;;;;;;;8.40;5.40;;;;;;;27.26;53.68;97436.48;105011;1256;100629;-76
2023/05/21 08:36:48;;;;;;;7.80;4.90;;;;;;;27.54;53.68;97432.13;105104;1251;96590;-76
2023/05/21 08:39:17;;;;;;;8.70;5.20;;;;;;;27.83;52.75;97428.52;105173;1255;97723;-76
2023/05/21 08:41:48;;;;;;;6.30;4.80;;;;;;;28.05;51.22;97429.34;105272;1256;102412;-76
2023/05/21 08:44:21;;;;;;;5.70;5.10;;;;;;;28.33;50.63;97433.69;105346;1251;101907;-76
2023/05/21 08:46:51;;;;;;;6.90;4.60;;;;;;;28.61;50.23;97426.93;105010;1257;100581;-76
2023/05/21 08:49:26;;;;;;;8.00;5.50;;;;;;;28.70;49.44;97431.14;105366;1251;97177;-78
2023/05/21 08:51:56;;;;;;;7.30;4.20;;;;;;;28.95;49.35;97428.06;105350;1256;97093;-76
2023/05/21 08:54:24;;;;;;;8.60;3.70;;;;;;;29.29;47.63;97427.30;105207;1256;102446;-75
2023/05/21 08:56:53;;;;;;;3.90;3.30;;;;;;;29.48;46.65;97431.31;105121;1256;101779;-75
2023/05/21 08:59:21;;;;;;;9.50;3.90;;;;;;;29.68;45.88;97430.17;105271;1253;100534;-78
2023/05/21 09:01:51;;;;;;;5.20;3.10;;;;;;;29.91;44.89;97429.05;104969;1262;97076;-78
2023/05/21 09:04:19;;;;;;;6.70;3.60;;;;;;;30.17;44.29;97427.40;105414;1256;96991;-74
2023/05/21 09:06:48;;;;;;;7.80;3.70;;;;;;;30.40;43.62;97423.30;105334;1265;102678;-76
2023/05/21 09:09:32;;;;;;;11.00;3.30;;;;;;;30.54;41.99;97426.29;105226;1274;101894;-77
2023/05/21 09:12:00;;;;;;;3.60;2.60;;;;;;;30.69;41.58;97424.48;105283;1257;100438;-78
2023/05/21 09:14:29;;;;;;;3.00;2.70;;;;;;;30.84;41.06;97421.94;105148;1256;97361;-76
2023/05/21 09:16:57;;;;;;;2.70;2.30;;;;;;;30.96;40.52;97421.74;105014;1255;97106;-76
2023/05/21 09:19:25;;;;;;;3.80;2.70;;;;;;;30.97;40.02;97419.17;105100;1256;102682;-75
2023/05/21 09:21:54;;;;;;;2.60;2.30;;;;;;;31.01;39.23;97423.92;105151;1259;100104;-76
2023/05/21 09:24:23;;;;;;;4.00;2.60;;;;;;;31.04;37.96;97420.52;105352;1251;100175;-75
2023/05/21 09:26:51;;;;;;;6.30;2.80;;;;;;;30.87;38.23;97419.83;104938;1262;96596;-77
2023/05/21 09:29:19;;;;;;;3.60;2.70;;;;;;;30.88;38.29;97418.45;105154;1252;97196;-75
2023/05/21 09:31:47;;;;;;;2.90;2.50;;;;;;;31.02;38.39;97416.95;105367;1251;100931;-75
2023/05/21 09:34:15;;;;;;;4.10;2.70;;;;;;;31.17;38.05;97412.40;105129;1263;101974;-75
2023/05/21 09:36:44;;;;;;;6.90;2.80;;;;;;;31.23;37.06;97413.39;105254;1256;100428;-75
2023/05/21 09:39:28;;;;;;;7.30;3.30;;;;;;;31.21;37.15;97413.34;105303;1256;96955;-75
2023/05/21 09:41:59;;;;;;;3.30;3.00;;;;;;;31.20;36.83;97411.85;105304;1256;97506;-75
2023/05/21 09:44:27;;;;;;;7.10;3.40;;;;;;;31.11;36.69;97407.73;105258;1256;102457;-75
2023/05/21 09:46:59;;;;;;;8.80;6.20;;;;;;;31.07;36.55;97405.88;105195;1256;101875;-75
2023/05/21 09:49:27;;;;;;;9.60;5.80;;;;;;;31.08;36.42;97408.01;104858;1260;100417;-74
2023/05/21 09:51:58;;;;;;;6.90;4.30;;;;;;;31.11;36.29;97405.22;105231;1256;97512;-75
2023/05/21 09:54:32;;;;;;;5.20;3.30;;;;;;;31.05;36.12;97399.55;105076;1259;97154;-74
2023/05/21 09:57:02;;;;;;;3.80;2.80;;;;;;;30.94;35.80;97401.30;105335;1256;102638;-75
2023/05/21 09:59:40;;;;;;;5.50;3.60;;;;;;;30.87;35.38;97402.62;105092;1260;102086;-75
2023/05/21 10:02:22;;;;;;;5.30;3.00;;;;;;;30.81;35.53;97397.07;105348;1256;100318;-75
2023/05/21 10:04:53;;;;;;;5.60;2.40;;;;;;;30.70;35.44;97397.94;105293;1267;96508;-75
2023/05/21 10:07:25;;;;;;;4.90;2.70;;;;;;;30.67;35.60;97394.65;104902;1264;96669;-75
2023/05/21 10:09:54;;;;;;;;;;;;;;;30.70;35.73;97391.34;105083;1255;102746;-74
2023/05/21 10:12:24;;;;;;;4.60;3.60;;;;;;;30.63;34.63;97396.34;105305;1256;99989;-76
2023/05/21 10:14:57;;;;;;;6.00;3.10;;;;;;;30.57;35.06;97396.89;105137;1256;99954;-75
2023/05/21 10:17:27;;;;;;;4.30;2.90;;;;;;;30.60;35.16;97392.55;105380;1256;96571;-77
2023/05/21 10:19:57;;;;;;;2.90;2.70;;;;;;;30.60;34.67;97392.42;105120;1263;97797;-76
2023/05/21 10:22:26;;;;;;;6.20;3.30;;;;;;;30.58;33.77;97387.79;105125;1256;102495;-76
2023/05/21 10:24:54;;;;;;;3.70;2.80;;;;;;;30.55;34.02;97387.06;105292;1255;101894;-75
2023/05/21 10:27:23;;;;;;;5.30;2.50;;;;;;;30.57;34.03;97387.52;105094;1256;100865;-75
2023/05/21 10:29:53;;;;;;;8.20;3.30;;;;;;;30.56;33.32;97380.84;105101;1256;96674;-75
2023/05/21 10:32:22;;;;;;;4.60;3.40;;;;;;;30.52;33.58;97378.39;105239;1256;97074;-76
2023/05/21 10:34:53;;;;;;;7.00;3.00;;;;;;;30.55;34.17;97379.61;105097;1256;103027;-75
2023/05/21 10:37:25;;;;;;;4.00;2.50;;;;;;;30.52;33.56;97377.10;105172;1256;101923;-74
2023/05/21 10:39:54;;;;;;;5.00;2.90;;;;;;;30.49;33.43;97373.88;105069;1257;100240;-74
2023/05/21 10:42:31;;;;;;;5.50;2.20;;;;;;;30.47;32.58;97374.15;105100;1256;96582;-75
2023/05/21 10:45:16;;;;;;;5.80;2.80;;;;;;;30.40;31.63;97377.88;105138;1255;97210;-74
2023/05/21 10:48:15;;;;;;;9.00;3.30;;;;;;;30.38;31.78;97378.83;105766;1253;102850;-76
2023/05/21 10:50:52;;;;;;;3.60;2.40;;;;;;;30.35;32.03;97373.92;105141;1255;101983;-75
2023/05/21 10:53:29;;;;;;;3.40;2.40;;;;;;;30.40;31.88;97371.43;105219;1253;98789;-75
2023/05/21 10:56:30;;;;;;;4.80;2.60;;;;;;;30.50;32.00;97368.46;105376;1251;96556;-74
2023/05/21 10:59:31;;;;;;;2.40;2.00;;;;;;;30.48;31.69;97368.07;105335;1252;97483;-75
2023/05/21 11:02:00;;;;;;;3.80;2.40;;;;;;;30.42;31.57;97367.20;105333;1256;102210;-77
2023/05/21 11:04:29;;;;;;;2.80;2.40;;;;;;;30.47;31.48;97363.48;105189;1259;101789;-76
2023/05/21 11:07:00;;;;;;;6.00;2.10;;;;;;;30.51;31.23;97365.95;105330;1257;100803;-75
2023/05/21 11:09:28;;;;;;;7.50;2.20;;;;;;;30.42;31.02;97368.41;105167;1257;96561;-75
2023/05/21 11:12:01;;;;;;;4.60;2.50;;;;;;;30.42;31.62;97363.00;105014;1259;97056;-77
2023/05/21 11:14:42;;;;;;;3.40;2.20;;;;;;;30.50;31.82;97363.42;105138;1257;102339;-75
2023/05/21 11:17:13;;;;;;;4.60;2.40;;;;;;;30.53;30.87;97366.65;104956;1269;101943;-74
2023/05/21 11:19:46;;;;;;;3.90;2.60;;;;;;;30.52;30.80;97368.36;105370;1257;100457;-75
2023/05/21 11:22:25;;;;;;;6.00;2.70;;;;;;;30.50;30.61;97362.41;105163;1257;97442;-74
2023/05/21 11:24:56;;;;;;;4.40;2.10;;;;;;;30.48;30.78;97366.05;105249;1257;97071;-74